sensor_id;sensor_type;location;lat;lon;timestamp;temperature;humidity
65972;SHT31;52726;48.852;9.152;2023-11-22T00:02:19;5.82;98.37
65972;SHT31;52726;48.852;9.152;2023-11-22T00:04:45;5.73;98.42
65972;SHT31;52726;48.852;9.152;2023-11-22T00:07:11;5.59;98.10
65972;SHT31;52726;48.852;9.152;2023-11-22T00:09:36;5.48;98.08
65972;SHT31;52726;48.852;9.152;2023-11-22T00:12:02;5.31;97.52
65972;SHT31;52726;48.852;9.152;2023-11-22T00:14:27;5.21;97.74
65972;SHT31;52726;48.852;9.152;2023-11-22T00:16:53;5.20;97.92
65972;SHT31;52726;48.852;9.152;2023-11-22T00:19:18;5.13;97.93
65972;SHT31;52726;48.852;9.152;2023-11-22T00:21:47;5.13;98.22
65972;SHT31;52726;48.852;9.152;2023-11-22T00:24:12;5.06;98.03
65972;SHT31;52726;48.852;9.152;2023-11-22T00:26:38;5.06;98.31
65972;SHT31;52726;48.852;9.152;2023-11-22T00:29:03;4.99;98.11
65972;SHT31;52726;48.852;9.152;2023-11-22T00:31:28;4.93;98.18
65972;SHT31;52726;48.852;9.152;2023-11-22T00:33:54;4.93;98.42
65972;SHT31;52726;48.852;9.152;2023-11-22T00:36:20;4.93;98.33
65972;SHT31;52726;48.852;9.152;2023-11-22T00:38:45;4.86;98.09
65972;SHT31;52726;48.852;9.152;2023-11-22T00:41:10;4.81;97.90
65972;SHT31;52726;48.852;9.152;2023-11-22T00:43:36;4.76;97.86
65972;SHT31;52726;48.852;9.152;2023-11-22T00:46:02;4.76;97.73
65972;SHT31;52726;48.852;9.152;2023-11-22T00:48:27;4.79;97.97
65972;SHT31;52726;48.852;9.152;2023-11-22T00:50:53;4.79;97.83
65972;SHT31;52726;48.852;9.152;2023-11-22T00:53:18;4.77;97.97
65972;SHT31;52726;48.852;9.152;2023-11-22T00:55:43;4.70;97.70
65972;SHT31;52726;48.852;9.152;2023-11-22T00:58:09;4.66;97.93
65972;SHT31;52726;48.852;9.152;2023-11-22T01:00:34;4.63;97.81
65972;SHT31;52726;48.852;9.152;2023-11-22T01:03:00;4.61;97.80
65972;SHT31;52726;48.852;9.152;2023-11-22T01:05:25;4.55;97.78
65972;SHT31;52726;48.852;9.152;2023-11-22T01:07:51;4.49;97.50
65972;SHT31;52726;48.852;9.152;2023-11-22T01:10:16;4.45;97.47
65972;SHT31;52726;48.852;9.152;2023-11-22T01:12:41;4.45;97.81
65972;SHT31;52726;48.852;9.152;2023-11-22T01:15:07;4.34;97.23
65972;SHT31;52726;48.852;9.152;2023-11-22T01:17:33;4.30;97.17
65972;SHT31;52726;48.852;9.152;2023-11-22T01:19:59;4.30;97.24
65972;SHT31;52726;48.852;9.152;2023-11-22T01:22:25;4.22;96.84
65972;SHT31;52726;48.852;9.152;2023-11-22T01:24:50;4.24;96.73
65972;SHT31;52726;48.852;9.152;2023-11-22T01:27:15;4.25;96.78
65972;SHT31;52726;48.852;9.152;2023-11-22T01:29:41;4.21;96.84
65972;SHT31;52726;48.852;9.152;2023-11-22T01:32:07;4.15;96.65
65972;SHT31;52726;48.852;9.152;2023-11-22T01:34:34;4.13;96.62
65972;SHT31;52726;48.852;9.152;2023-11-22T01:37:00;4.00;96.07
65972;SHT31;52726;48.852;9.152;2023-11-22T01:39:25;4.01;96.23
65972;SHT31;52726;48.852;9.152;2023-11-22T01:41:51;3.95;95.91
65972;SHT31;52726;48.852;9.152;2023-11-22T01:44:17;3.93;95.45
65972;SHT31;52726;48.852;9.152;2023-11-22T01:46:43;3.94;95.73
65972;SHT31;52726;48.852;9.152;2023-11-22T01:49:16;3.86;94.95
65972;SHT31;52726;48.852;9.152;2023-11-22T01:51:42;3.83;94.53
65972;SHT31;52726;48.852;9.152;2023-11-22T01:54:08;3.87;94.91
65972;SHT31;52726;48.852;9.152;2023-11-22T01:56:35;3.80;93.66
65972;SHT31;52726;48.852;9.152;2023-11-22T01:59:03;3.80;93.93
65972;SHT31;52726;48.852;9.152;2023-11-22T02:01:28;3.76;93.04
65972;SHT31;52726;48.852;9.152;2023-11-22T02:03:54;3.77;93.53
65972;SHT31;52726;48.852;9.152;2023-11-22T02:06:20;3.76;93.88
65972;SHT31;52726;48.852;9.152;2023-11-22T02:08:49;3.73;93.11
65972;SHT31;52726;48.852;9.152;2023-11-22T02:11:17;3.70;92.99
65972;SHT31;52726;48.852;9.152;2023-11-22T02:13:47;3.72;93.30
65972;SHT31;52726;48.852;9.152;2023-11-22T02:16:13;3.69;92.70
65972;SHT31;52726;48.852;9.152;2023-11-22T02:18:38;3.65;91.63
65972;SHT31;52726;48.852;9.152;2023-11-22T02:21:04;3.59;90.86
65972;SHT31;52726;48.852;9.152;2023-11-22T02:23:30;3.56;90.67
65972;SHT31;52726;48.852;9.152;2023-11-22T02:25:56;3.54;90.52
65972;SHT31;52726;48.852;9.152;2023-11-22T02:28:21;3.52;90.58
65972;SHT31;52726;48.852;9.152;2023-11-22T02:30:47;3.52;90.74
65972;SHT31;52726;48.852;9.152;2023-11-22T02:33:12;3.52;91.00
65972;SHT31;52726;48.852;9.152;2023-11-22T02:35:37;3.46;89.81
65972;SHT31;52726;48.852;9.152;2023-11-22T02:38:03;3.43;89.90
65972;SHT31;52726;48.852;9.152;2023-11-22T02:40:30;3.42;90.01
65972;SHT31;52726;48.852;9.152;2023-11-22T02:42:55;3.38;89.67
65972;SHT31;52726;48.852;9.152;2023-11-22T02:45:30;3.36;90.35
65972;SHT31;52726;48.852;9.152;2023-11-22T02:47:56;3.34;90.66
65972;SHT31;52726;48.852;9.152;2023-11-22T02:50:21;3.21;90.87
65972;SHT31;52726;48.852;9.152;2023-11-22T02:52:46;3.24;92.13
65972;SHT31;52726;48.852;9.152;2023-11-22T02:55:12;3.22;91.76
65972;SHT31;52726;48.852;9.152;2023-11-22T02:57:38;3.17;91.86
65972;SHT31;52726;48.852;9.152;2023-11-22T03:00:09;3.15;92.27
65972;SHT31;52726;48.852;9.152;2023-11-22T03:02:38;3.08;91.67
65972;SHT31;52726;48.852;9.152;2023-11-22T03:05:05;3.11;92.75
65972;SHT31;52726;48.852;9.152;2023-11-22T03:07:30;3.11;93.14
65972;SHT31;52726;48.852;9.152;2023-11-22T03:09:56;3.05;92.34
65972;SHT31;52726;48.852;9.152;2023-11-22T03:12:24;3.04;92.61
65972;SHT31;52726;48.852;9.152;2023-11-22T03:14:49;3.04;92.30
65972;SHT31;52726;48.852;9.152;2023-11-22T03:17:15;3.07;92.75
65972;SHT31;52726;48.852;9.152;2023-11-22T03:19:40;3.05;92.56
65972;SHT31;52726;48.852;9.152;2023-11-22T03:22:06;3.09;92.79
65972;SHT31;52726;48.852;9.152;2023-11-22T03:24:32;3.11;92.80
65972;SHT31;52726;48.852;9.152;2023-11-22T03:27:00;3.09;92.63
65972;SHT31;52726;48.852;9.152;2023-11-22T03:29:26;3.14;92.57
65972;SHT31;52726;48.852;9.152;2023-11-22T03:31:52;3.14;92.85
65972;SHT31;52726;48.852;9.152;2023-11-22T03:34:19;3.17;93.29
65972;SHT31;52726;48.852;9.152;2023-11-22T03:36:44;3.19;93.38
65972;SHT31;52726;48.852;9.152;2023-11-22T03:39:10;3.18;93.62
65972;SHT31;52726;48.852;9.152;2023-11-22T03:41:38;3.24;94.03
65972;SHT31;52726;48.852;9.152;2023-11-22T06:49:41;2.42;88.86
65972;SHT31;52726;48.852;9.152;2023-11-22T06:52:07;2.36;88.96
65972;SHT31;52726;48.852;9.152;2023-11-22T06:54:34;2.33;88.99
65972;SHT31;52726;48.852;9.152;2023-11-22T06:57:00;2.28;88.58
65972;SHT31;52726;48.852;9.152;2023-11-22T06:59:25;2.25;89.11
65972;SHT31;52726;48.852;9.152;2023-11-22T07:01:51;2.28;89.60
65972;SHT31;52726;48.852;9.152;2023-11-22T07:04:16;2.26;89.34
65972;SHT31;52726;48.852;9.152;2023-11-22T07:06:42;2.28;89.78
65972;SHT31;52726;48.852;9.152;2023-11-22T07:09:09;2.22;89.51
65972;SHT31;52726;48.852;9.152;2023-11-22T07:11:35;2.21;89.22
65972;SHT31;52726;48.852;9.152;2023-11-22T07:14:02;2.22;89.29
65972;SHT31;52726;48.852;9.152;2023-11-22T07:16:29;2.20;89.39
65972;SHT31;52726;48.852;9.152;2023-11-22T07:18:54;2.18;89.30
65972;SHT31;52726;48.852;9.152;2023-11-22T07:21:20;2.20;89.29
65972;SHT31;52726;48.852;9.152;2023-11-22T07:23:46;2.20;89.18
65972;SHT31;52726;48.852;9.152;2023-11-22T07:26:12;2.12;88.31
65972;SHT31;52726;48.852;9.152;2023-11-22T07:28:39;2.08;88.06
65972;SHT31;52726;48.852;9.152;2023-11-22T07:31:07;2.07;88.73
65972;SHT31;52726;48.852;9.152;2023-11-22T07:33:32;2.04;88.11
65972;SHT31;52726;48.852;9.152;2023-11-22T07:35:58;2.00;87.73
65972;SHT31;52726;48.852;9.152;2023-11-22T07:38:24;1.95;87.25
65972;SHT31;52726;48.852;9.152;2023-11-22T07:40:49;1.93;87.51
65972;SHT31;52726;48.852;9.152;2023-11-22T07:43:16;1.90;86.92
65972;SHT31;52726;48.852;9.152;2023-11-22T07:45:41;1.88;87.06
65972;SHT31;52726;48.852;9.152;2023-11-22T07:48:10;1.93;87.90
65972;SHT31;52726;48.852;9.152;2023-11-22T07:50:37;1.91;88.46
65972;SHT31;52726;48.852;9.152;2023-11-22T07:53:03;1.91;88.32
65972;SHT31;52726;48.852;9.152;2023-11-22T07:55:30;1.88;88.15
65972;SHT31;52726;48.852;9.152;2023-11-22T07:57:55;1.90;87.97
65972;SHT31;52726;48.852;9.152;2023-11-22T08:00:21;1.84;87.54
65972;SHT31;52726;48.852;9.152;2023-11-22T08:02:47;1.84;88.22
65972;SHT31;52726;48.852;9.152;2023-11-22T08:05:13;1.85;88.71
65972;SHT31;52726;48.852;9.152;2023-11-22T08:07:41;1.88;88.79
65972;SHT31;52726;48.852;9.152;2023-11-22T08:10:10;1.87;88.48
65972;SHT31;52726;48.852;9.152;2023-11-22T08:12:44;1.85;88.85
65972;SHT31;52726;48.852;9.152;2023-11-22T08:15:13;1.87;88.74
65972;SHT31;52726;48.852;9.152;2023-11-22T08:17:39;1.87;89.18
65972;SHT31;52726;48.852;9.152;2023-11-22T08:20:07;1.88;89.32
65972;SHT31;52726;48.852;9.152;2023-11-22T08:22:37;1.91;89.09
65972;SHT31;52726;48.852;9.152;2023-11-22T08:25:02;1.91;89.17
65972;SHT31;52726;48.852;9.152;2023-11-22T08:27:29;1.93;88.94
65972;SHT31;52726;48.852;9.152;2023-11-22T08:29:54;1.94;88.87
65972;SHT31;52726;48.852;9.152;2023-11-22T08:32:19;1.88;87.42
65972;SHT31;52726;48.852;9.152;2023-11-22T08:34:51;1.90;87.25
65972;SHT31;52726;48.852;9.152;2023-11-22T08:37:17;1.84;86.30
65972;SHT31;52726;48.852;9.152;2023-11-22T08:39:42;1.90;86.93
65972;SHT31;52726;48.852;9.152;2023-11-22T08:42:08;1.85;86.20
65972;SHT31;52726;48.852;9.152;2023-11-22T08:44:35;1.84;85.36
65972;SHT31;52726;48.852;9.152;2023-11-22T08:47:01;1.80;85.36
65972;SHT31;52726;48.852;9.152;2023-11-22T08:49:28;1.81;87.41
65972;SHT31;52726;48.852;9.152;2023-11-22T08:51:57;1.78;86.54
65972;SHT31;52726;48.852;9.152;2023-11-22T08:54:24;1.81;88.03
65972;SHT31;52726;48.852;9.152;2023-11-22T08:56:50;1.84;87.87
65972;SHT31;52726;48.852;9.152;2023-11-22T08:59:15;1.81;87.02
65972;SHT31;52726;48.852;9.152;2023-11-22T09:01:41;1.87;87.33
65972;SHT31;52726;48.852;9.152;2023-11-22T09:04:11;1.91;87.47
65972;SHT31;52726;48.852;9.152;2023-11-22T09:06:36;1.94;87.57
65972;SHT31;52726;48.852;9.152;2023-11-22T09:09:02;1.95;87.29
65972;SHT31;52726;48.852;9.152;2023-11-22T09:11:27;1.94;86.60
65972;SHT31;52726;48.852;9.152;2023-11-22T09:13:53;1.85;85.97
65972;SHT31;52726;48.852;9.152;2023-11-22T09:16:22;1.85;85.49
65972;SHT31;52726;48.852;9.152;2023-11-22T09:18:50;1.85;85.05
65972;SHT31;52726;48.852;9.152;2023-11-22T09:21:15;1.88;86.23
65972;SHT31;52726;48.852;9.152;2023-11-22T09:23:42;1.91;85.84
65972;SHT31;52726;48.852;9.152;2023-11-22T09:26:08;1.97;86.48
65972;SHT31;52726;48.852;9.152;2023-11-22T09:28:34;1.88;85.25
65972;SHT31;52726;48.852;9.152;2023-11-22T09:31:00;1.85;85.42
65972;SHT31;52726;48.852;9.152;2023-11-22T09:33:31;1.81;85.32
65972;SHT31;52726;48.852;9.152;2023-11-22T09:35:57;1.90;85.40
65972;SHT31;52726;48.852;9.152;2023-11-22T09:38:23;1.97;85.40
65972;SHT31;52726;48.852;9.152;2023-11-22T09:40:49;1.90;84.64
65972;SHT31;52726;48.852;9.152;2023-11-22T09:43:15;1.91;85.69
65972;SHT31;52726;48.852;9.152;2023-11-22T09:45:45;1.93;86.23
65972;SHT31;52726;48.852;9.152;2023-11-22T09:48:21;1.98;85.71
65972;SHT31;52726;48.852;9.152;2023-11-22T09:51:03;1.91;84.83
65972;SHT31;52726;48.852;9.152;2023-11-22T09:53:34;2.00;86.54
65972;SHT31;52726;48.852;9.152;2023-11-22T09:56:01;2.02;86.70
65972;SHT31;52726;48.852;9.152;2023-11-22T09:58:31;2.05;86.88
65972;SHT31;52726;48.852;9.152;2023-11-22T10:00:59;2.14;87.15
65972;SHT31;52726;48.852;9.152;2023-11-22T10:03:26;2.25;87.61
65972;SHT31;52726;48.852;9.152;2023-11-22T10:05:52;2.26;86.28
65972;SHT31;52726;48.852;9.152;2023-11-22T10:08:18;2.36;87.08
65972;SHT31;52726;48.852;9.152;2023-11-22T10:10:44;2.46;86.75
65972;SHT31;52726;48.852;9.152;2023-11-22T10:13:13;2.42;85.38
65972;SHT31;52726;48.852;9.152;2023-11-22T10:15:40;2.42;84.73
65972;SHT31;52726;48.852;9.152;2023-11-22T10:18:05;2.46;85.74
65972;SHT31;52726;48.852;9.152;2023-11-22T10:20:39;2.54;85.27
65972;SHT31;52726;48.852;9.152;2023-11-22T10:23:12;2.52;84.30
65972;SHT31;52726;48.852;9.152;2023-11-22T10:25:49;2.56;85.83
65972;SHT31;52726;48.852;9.152;2023-11-22T10:28:17;2.54;84.40
65972;SHT31;52726;48.852;9.152;2023-11-22T10:30:46;2.63;85.36
65972;SHT31;52726;48.852;9.152;2023-11-22T10:33:11;2.64;84.25
65972;SHT31;52726;48.852;9.152;2023-11-22T10:35:45;2.67;83.85
65972;SHT31;52726;48.852;9.152;2023-11-22T10:38:13;2.80;85.84
65972;SHT31;52726;48.852;9.152;2023-11-22T10:40:38;2.91;86.06
65972;SHT31;52726;48.852;9.152;2023-11-22T10:43:05;2.86;84.38
65972;SHT31;52726;48.852;9.152;2023-11-22T10:45:30;2.87;83.84
65972;SHT31;52726;48.852;9.152;2023-11-22T10:48:00;2.96;83.95
65972;SHT31;52726;48.852;9.152;2023-11-22T10:50:25;2.93;82.34
65972;SHT31;52726;48.852;9.152;2023-11-22T10:52:52;2.81;82.50
65972;SHT31;52726;48.852;9.152;2023-11-22T10:55:21;2.84;83.65
65972;SHT31;52726;48.852;9.152;2023-11-22T10:57:52;2.90;83.22
65972;SHT31;52726;48.852;9.152;2023-11-22T11:00:20;2.90;82.76
65972;SHT31;52726;48.852;9.152;2023-11-22T11:02:51;2.96;83.89
65972;SHT31;52726;48.852;9.152;2023-11-22T11:05:21;3.08;85.05
65972;SHT31;52726;48.852;9.152;2023-11-22T11:08:00;3.15;85.56
65972;SHT31;52726;48.852;9.152;2023-11-22T11:10:27;3.01;83.89
65972;SHT31;52726;48.852;9.152;2023-11-22T11:12:53;3.04;85.04
65972;SHT31;52726;48.852;9.152;2023-11-22T11:15:20;3.00;84.48
65972;SHT31;52726;48.852;9.152;2023-11-22T11:17:47;3.05;84.88
65972;SHT31;52726;48.852;9.152;2023-11-22T11:20:18;3.01;83.50
65972;SHT31;52726;48.852;9.152;2023-11-22T11:22:47;3.04;84.60
65972;SHT31;52726;48.852;9.152;2023-11-22T11:25:14;3.08;85.25
65972;SHT31;52726;48.852;9.152;2023-11-22T11:27:40;3.11;84.37
65972;SHT31;52726;48.852;9.152;2023-11-22T11:30:44;3.15;85.15
65972;SHT31;52726;48.852;9.152;2023-11-22T11:33:12;3.11;84.21
65972;SHT31;52726;48.852;9.152;2023-11-22T11:35:46;3.14;84.48
65972;SHT31;52726;48.852;9.152;2023-11-22T11:38:17;3.12;84.53
65972;SHT31;52726;48.852;9.152;2023-11-22T11:40:46;3.19;85.23
65972;SHT31;52726;48.852;9.152;2023-11-22T11:43:11;3.17;85.82
65972;SHT31;52726;48.852;9.152;2023-11-22T11:45:42;3.08;84.57
65972;SHT31;52726;48.852;9.152;2023-11-22T11:48:16;2.90;83.27
65972;SHT31;52726;48.852;9.152;2023-11-22T11:50:42;2.94;85.45
65972;SHT31;52726;48.852;9.152;2023-11-22T11:53:11;2.91;83.65
65972;SHT31;52726;48.852;9.152;2023-11-22T11:55:37;2.94;84.75
65972;SHT31;52726;48.852;9.152;2023-11-22T11:58:06;2.97;85.23
65972;SHT31;52726;48.852;9.152;2023-11-22T12:00:37;3.01;85.64
65972;SHT31;52726;48.852;9.152;2023-11-22T12:03:06;2.97;84.45
65972;SHT31;52726;48.852;9.152;2023-11-22T12:05:32;3.00;85.40
65972;SHT31;52726;48.852;9.152;2023-11-22T12:07:58;3.04;85.38
65972;SHT31;52726;48.852;9.152;2023-11-22T12:10:23;3.09;85.75
65972;SHT31;52726;48.852;9.152;2023-11-22T12:12:49;3.08;86.19
65972;SHT31;52726;48.852;9.152;2023-11-22T12:15:14;2.97;85.05
65972;SHT31;52726;48.852;9.152;2023-11-22T12:17:40;2.97;85.38
65972;SHT31;52726;48.852;9.152;2023-11-22T12:20:13;2.90;84.39
65972;SHT31;52726;48.852;9.152;2023-11-22T12:22:41;2.93;85.07
65972;SHT31;52726;48.852;9.152;2023-11-22T12:25:07;2.93;85.48
65972;SHT31;52726;48.852;9.152;2023-11-22T12:27:32;2.93;85.24
65972;SHT31;52726;48.852;9.152;2023-11-22T12:29:58;2.96;84.78
65972;SHT31;52726;48.852;9.152;2023-11-22T12:32:26;2.91;84.09
65972;SHT31;52726;48.852;9.152;2023-11-22T12:34:52;2.93;84.52
65972;SHT31;52726;48.852;9.152;2023-11-22T12:37:21;2.93;85.63
65972;SHT31;52726;48.852;9.152;2023-11-22T12:39:48;2.96;85.75
65972;SHT31;52726;48.852;9.152;2023-11-22T12:42:13;2.93;84.43
65972;SHT31;52726;48.852;9.152;2023-11-22T12:44:52;2.84;84.04
65972;SHT31;52726;48.852;9.152;2023-11-22T12:47:33;2.75;83.99
65972;SHT31;52726;48.852;9.152;2023-11-22T12:50:03;2.69;83.59
65972;SHT31;52726;48.852;9.152;2023-11-22T12:52:32;2.63;83.53
65972;SHT31;52726;48.852;9.152;2023-11-22T12:54:58;2.60;83.68
65972;SHT31;52726;48.852;9.152;2023-11-22T12:57:24;2.57;83.83
65972;SHT31;52726;48.852;9.152;2023-11-22T12:59:49;2.66;85.69
65972;SHT31;52726;48.852;9.152;2023-11-22T13:02:15;2.70;84.67
65972;SHT31;52726;48.852;9.152;2023-11-22T13:04:42;2.69;84.21
65972;SHT31;52726;48.852;9.152;2023-11-22T13:07:07;2.70;84.14
65972;SHT31;52726;48.852;9.152;2023-11-22T13:09:32;2.79;84.99
65972;SHT31;52726;48.852;9.152;2023-11-22T13:12:00;2.79;84.57
65972;SHT31;52726;48.852;9.152;2023-11-22T13:14:26;2.80;84.78
65972;SHT31;52726;48.852;9.152;2023-11-22T13:16:57;2.80;85.24
65972;SHT31;52726;48.852;9.152;2023-11-22T13:19:22;2.81;84.77
65972;SHT31;52726;48.852;9.152;2023-11-22T13:21:47;2.81;84.43
65972;SHT31;52726;48.852;9.152;2023-11-22T13:24:14;2.89;85.90
65972;SHT31;52726;48.852;9.152;2023-11-22T13:26:41;2.86;85.03
65972;SHT31;52726;48.852;9.152;2023-11-22T13:29:07;2.83;84.84
65972;SHT31;52726;48.852;9.152;2023-11-22T13:31:33;2.80;85.12
65972;SHT31;52726;48.852;9.152;2023-11-22T13:33:58;2.87;85.83
65972;SHT31;52726;48.852;9.152;2023-11-22T13:36:24;2.81;84.40
65972;SHT31;52726;48.852;9.152;2023-11-22T13:38:49;2.79;84.05
65972;SHT31;52726;48.852;9.152;2023-11-22T13:41:15;2.81;84.64
65972;SHT31;52726;48.852;9.152;2023-11-22T13:43:40;2.81;84.12
65972;SHT31;52726;48.852;9.152;2023-11-22T13:46:05;2.76;83.31
65972;SHT31;52726;48.852;9.152;2023-11-22T13:48:31;2.79;83.97
65972;SHT31;52726;48.852;9.152;2023-11-22T13:50:57;2.80;84.50
65972;SHT31;52726;48.852;9.152;2023-11-22T13:53:25;2.72;82.64
65972;SHT31;52726;48.852;9.152;2023-11-22T13:55:52;2.72;83.48
65972;SHT31;52726;48.852;9.152;2023-11-22T13:58:19;2.80;84.42
65972;SHT31;52726;48.852;9.152;2023-11-22T14:00:44;2.76;84.38
65972;SHT31;52726;48.852;9.152;2023-11-22T14:03:12;2.64;82.35
65972;SHT31;52726;48.852;9.152;2023-11-22T14:05:38;2.59;81.71
65972;SHT31;52726;48.852;9.152;2023-11-22T14:08:09;2.63;83.24
65972;SHT31;52726;48.852;9.152;2023-11-22T14:10:35;2.72;84.70
65972;SHT31;52726;48.852;9.152;2023-11-22T14:13:00;2.75;84.26
65972;SHT31;52726;48.852;9.152;2023-11-22T14:15:28;2.75;84.26
65972;SHT31;52726;48.852;9.152;2023-11-22T14:17:54;2.75;84.59
65972;SHT31;52726;48.852;9.152;2023-11-22T14:20:20;2.79;84.26
65972;SHT31;52726;48.852;9.152;2023-11-22T14:22:46;2.73;84.00
65972;SHT31;52726;48.852;9.152;2023-11-22T14:25:11;2.70;83.25
65972;SHT31;52726;48.852;9.152;2023-11-22T14:27:43;2.64;82.60
65972;SHT31;52726;48.852;9.152;2023-11-22T14:30:10;2.63;83.34
65972;SHT31;52726;48.852;9.152;2023-11-22T14:32:37;2.66;83.67
65972;SHT31;52726;48.852;9.152;2023-11-22T14:35:03;2.69;84.26
65972;SHT31;52726;48.852;9.152;2023-11-22T14:37:29;2.67;83.88
65972;SHT31;52726;48.852;9.152;2023-11-22T14:39:55;2.64;83.25
65972;SHT31;52726;48.852;9.152;2023-11-22T14:42:21;2.60;83.66
65972;SHT31;52726;48.852;9.152;2023-11-22T14:44:47;2.54;82.76
65972;SHT31;52726;48.852;9.152;2023-11-22T14:47:14;2.56;83.59
65972;SHT31;52726;48.852;9.152;2023-11-22T14:49:49;2.59;83.68
65972;SHT31;52726;48.852;9.152;2023-11-22T14:52:14;2.56;82.80
65972;SHT31;52726;48.852;9.152;2023-11-22T14:54:42;2.52;81.89
65972;SHT31;52726;48.852;9.152;2023-11-22T14:57:07;2.49;81.61
65972;SHT31;52726;48.852;9.152;2023-11-22T14:59:35;2.49;81.90
65972;SHT31;52726;48.852;9.152;2023-11-22T15:05:20;2.49;82.91
65972;SHT31;52726;48.852;9.152;2023-11-22T15:07:47;2.53;84.07
65972;SHT31;52726;48.852;9.152;2023-11-22T15:10:16;2.52;82.74
65972;SHT31;52726;48.852;9.152;2023-11-22T15:12:42;2.45;81.88
65972;SHT31;52726;48.852;9.152;2023-11-22T15:15:08;2.43;81.59
65972;SHT31;52726;48.852;9.152;2023-11-22T15:17:34;2.45;81.93
65972;SHT31;52726;48.852;9.152;2023-11-22T15:19:59;2.41;81.61
65972;SHT31;52726;48.852;9.152;2023-11-22T15:22:25;2.41;81.81
65972;SHT31;52726;48.852;9.152;2023-11-22T15:24:51;2.42;82.39
65972;SHT31;52726;48.852;9.152;2023-11-22T15:27:17;2.41;82.25
65972;SHT31;52726;48.852;9.152;2023-11-22T15:29:42;2.43;83.12
65972;SHT31;52726;48.852;9.152;2023-11-22T15:32:08;2.43;83.09
65972;SHT31;52726;48.852;9.152;2023-11-22T15:34:33;2.42;83.80
65972;SHT31;52726;48.852;9.152;2023-11-22T15:36:58;2.39;82.75
65972;SHT31;52726;48.852;9.152;2023-11-22T15:39:24;2.38;82.89
65972;SHT31;52726;48.852;9.152;2023-11-22T15:41:50;2.38;82.94
65972;SHT31;52726;48.852;9.152;2023-11-22T15:44:15;2.39;82.42
65972;SHT31;52726;48.852;9.152;2023-11-22T15:46:40;2.39;82.94
65972;SHT31;52726;48.852;9.152;2023-11-22T15:49:09;2.42;83.82
65972;SHT31;52726;48.852;9.152;2023-11-22T15:51:41;2.39;84.09
65972;SHT31;52726;48.852;9.152;2023-11-22T15:54:06;2.42;84.11
65972;SHT31;52726;48.852;9.152;2023-11-22T15:56:33;2.43;84.68
65972;SHT31;52726;48.852;9.152;2023-11-22T15:58:58;2.36;82.69
65972;SHT31;52726;48.852;9.152;2023-11-22T16:01:28;2.29;81.86
65972;SHT31;52726;48.852;9.152;2023-11-22T16:03:54;2.28;79.53
65972;SHT31;52726;48.852;9.152;2023-11-22T16:06:20;2.26;78.77
65972;SHT31;52726;48.852;9.152;2023-11-22T16:08:46;2.31;78.28
65972;SHT31;52726;48.852;9.152;2023-11-22T16:11:12;2.28;78.48
65972;SHT31;52726;48.852;9.152;2023-11-22T16:13:37;2.28;80.82
65972;SHT31;52726;48.852;9.152;2023-11-22T16:16:02;2.31;81.58
65972;SHT31;52726;48.852;9.152;2023-11-22T16:18:28;2.32;82.31
65972;SHT31;52726;48.852;9.152;2023-11-22T16:20:57;2.29;82.13
65972;SHT31;52726;48.852;9.152;2023-11-22T16:23:25;2.28;82.40
65972;SHT31;52726;48.852;9.152;2023-11-22T16:25:51;2.29;81.88
65972;SHT31;52726;48.852;9.152;2023-11-22T16:28:17;2.24;81.02
65972;SHT31;52726;48.852;9.152;2023-11-22T16:30:43;2.25;81.85
65972;SHT31;52726;48.852;9.152;2023-11-22T16:33:12;2.22;80.98
65972;SHT31;52726;48.852;9.152;2023-11-22T16:35:40;2.22;80.58
65972;SHT31;52726;48.852;9.152;2023-11-22T16:38:05;2.22;80.63
65972;SHT31;52726;48.852;9.152;2023-11-22T16:40:31;2.25;80.96
65972;SHT31;52726;48.852;9.152;2023-11-22T16:42:57;2.28;81.90
65972;SHT31;52726;48.852;9.152;2023-11-22T16:45:22;2.24;81.08
65972;SHT31;52726;48.852;9.152;2023-11-22T16:47:48;2.24;81.44
65972;SHT31;52726;48.852;9.152;2023-11-22T16:50:13;2.22;82.14
65972;SHT31;52726;48.852;9.152;2023-11-22T16:52:40;2.24;81.73
65972;SHT31;52726;48.852;9.152;2023-11-22T16:55:08;2.17;79.14
65972;SHT31;52726;48.852;9.152;2023-11-22T16:57:37;2.15;79.16
65972;SHT31;52726;48.852;9.152;2023-11-22T17:00:03;2.17;79.79
65972;SHT31;52726;48.852;9.152;2023-11-22T17:02:34;2.20;79.66
65972;SHT31;52726;48.852;9.152;2023-11-22T17:05:01;2.20;80.88
65972;SHT31;52726;48.852;9.152;2023-11-22T17:07:29;2.24;81.28
65972;SHT31;52726;48.852;9.152;2023-11-22T17:09:55;2.17;81.02
65972;SHT31;52726;48.852;9.152;2023-11-22T17:12:21;2.20;81.46
65972;SHT31;52726;48.852;9.152;2023-11-22T17:14:46;2.20;81.79
65972;SHT31;52726;48.852;9.152;2023-11-22T17:17:12;2.15;80.59
65972;SHT31;52726;48.852;9.152;2023-11-22T17:19:37;2.17;81.64
65972;SHT31;52726;48.852;9.152;2023-11-22T17:22:03;2.20;82.38
65972;SHT31;52726;48.852;9.152;2023-11-22T17:24:28;2.15;82.02
65972;SHT31;52726;48.852;9.152;2023-11-22T17:26:53;2.15;82.44
65972;SHT31;52726;48.852;9.152;2023-11-22T17:29:19;2.17;82.71
65972;SHT31;52726;48.852;9.152;2023-11-22T17:31:47;2.14;82.29
65972;SHT31;52726;48.852;9.152;2023-11-22T17:34:12;2.12;81.28
65972;SHT31;52726;48.852;9.152;2023-11-22T17:36:38;2.11;81.60
65972;SHT31;52726;48.852;9.152;2023-11-22T17:39:03;2.12;81.76
65972;SHT31;52726;48.852;9.152;2023-11-22T17:41:28;2.11;81.77
65972;SHT31;52726;48.852;9.152;2023-11-22T17:43:54;2.10;81.04
65972;SHT31;52726;48.852;9.152;2023-11-22T17:46:19;2.10;81.13
65972;SHT31;52726;48.852;9.152;2023-11-22T17:48:44;2.07;80.97
65972;SHT31;52726;48.852;9.152;2023-11-22T17:51:10;2.07;80.56
65972;SHT31;52726;48.852;9.152;2023-11-22T17:53:38;2.08;80.48
65972;SHT31;52726;48.852;9.152;2023-11-22T17:56:03;2.08;80.39
65972;SHT31;52726;48.852;9.152;2023-11-22T17:58:29;2.10;79.35
65972;SHT31;52726;48.852;9.152;2023-11-22T18:00:56;2.02;79.00
65972;SHT31;52726;48.852;9.152;2023-11-22T18:03:21;2.04;78.31
65972;SHT31;52726;48.852;9.152;2023-11-22T18:05:47;1.98;79.00
65972;SHT31;52726;48.852;9.152;2023-11-22T18:08:13;2.00;78.19
65972;SHT31;52726;48.852;9.152;2023-11-22T18:10:40;2.04;79.57
65972;SHT31;52726;48.852;9.152;2023-11-22T18:13:06;2.05;78.19
65972;SHT31;52726;48.852;9.152;2023-11-22T18:15:33;2.04;77.42
65972;SHT31;52726;48.852;9.152;2023-11-22T18:18:03;2.00;78.91
65972;SHT31;52726;48.852;9.152;2023-11-22T18:20:28;2.00;79.01
65972;SHT31;52726;48.852;9.152;2023-11-22T18:22:53;2.02;79.92
65972;SHT31;52726;48.852;9.152;2023-11-22T18:25:19;2.00;79.33
65972;SHT31;52726;48.852;9.152;2023-11-22T18:27:44;1.98;80.46
65972;SHT31;52726;48.852;9.152;2023-11-22T18:30:10;1.98;79.92
65972;SHT31;52726;48.852;9.152;2023-11-22T18:32:36;1.95;79.93
65972;SHT31;52726;48.852;9.152;2023-11-22T18:35:01;1.95;78.96
65972;SHT31;52726;48.852;9.152;2023-11-22T18:37:26;2.01;79.79
65972;SHT31;52726;48.852;9.152;2023-11-22T18:39:52;2.01;79.90
65972;SHT31;52726;48.852;9.152;2023-11-22T18:42:22;2.04;79.98
65972;SHT31;52726;48.852;9.152;2023-11-22T18:44:47;2.05;80.38
65972;SHT31;52726;48.852;9.152;2023-11-22T18:47:13;2.05;80.95
65972;SHT31;52726;48.852;9.152;2023-11-22T18:49:38;2.07;80.48
65972;SHT31;52726;48.852;9.152;2023-11-22T18:52:04;2.07;81.08